createdAt,value
2019-05-15T00:00:19.748Z,15.68
2019-05-15T00:02:48.327Z,16.02
2019-05-15T00:05:18.832Z,17.20
2019-05-15T00:07:48.419Z,15.93
2019-05-15T00:10:18.068Z,16.50
2019-05-15T00:12:48.634Z,15.90
2019-05-15T00:15:18.224Z,16.20
2019-05-15T00:17:48.607Z,15.48
2019-05-15T00:20:20.064Z,15.60
2019-05-15T00:22:48.408Z,15.38
2019-05-15T00:25:18.867Z,15.08
2019-05-15T00:27:49.130Z,15.60
2019-05-15T00:30:18.435Z,17.17
2019-05-15T00:32:48.656Z,15.80
2019-05-15T00:35:18.384Z,15.75
2019-05-15T00:37:49.320Z,16.50
2019-05-15T00:40:18.378Z,15.58
2019-05-15T00:42:48.875Z,16.60
2019-05-15T00:45:18.753Z,16.25
2019-05-15T00:47:48.714Z,15.20
2019-05-15T00:50:18.305Z,16.02
2019-05-15T00:52:48.457Z,16.30
2019-05-15T00:55:19.137Z,16.15
2019-05-15T00:57:48.559Z,16.02
2019-05-15T01:00:38.165Z,17.57
2019-05-15T01:03:08.746Z,16.15
2019-05-15T01:05:38.746Z,15.35
2019-05-15T01:08:08.323Z,15.25
2019-05-15T01:10:38.635Z,15.40
2019-05-15T01:13:08.354Z,16.15
2019-05-15T01:15:38.887Z,16.25
2019-05-15T01:18:09.342Z,15.05
2019-05-15T01:20:39.159Z,15.55
2019-05-15T01:23:08.811Z,15.08
2019-05-15T01:25:38.935Z,15.00
2019-05-15T01:28:09.424Z,14.28
2019-05-15T01:30:39.356Z,15.38
2019-05-15T01:33:08.838Z,13.95
2019-05-15T01:35:38.284Z,16.12
2019-05-15T01:38:08.102Z,15.13
2019-05-15T01:40:38.502Z,15.50
2019-05-15T01:43:09.248Z,15.72
2019-05-15T01:45:39.320Z,15.28
2019-05-15T01:48:08.207Z,15.40
2019-05-15T01:50:38.671Z,15.35
2019-05-15T01:53:08.190Z,15.30
2019-05-15T01:55:39.632Z,15.83
2019-05-15T01:58:09.135Z,15.45
2019-05-15T02:00:39.114Z,14.33
2019-05-15T02:03:09.688Z,16.05
2019-05-15T02:05:39.119Z,15.63
2019-05-15T02:08:08.343Z,15.20
2019-05-15T02:10:39.178Z,15.68
2019-05-15T02:13:08.634Z,15.83
2019-05-15T02:15:39.542Z,15.75
2019-05-15T02:18:08.417Z,15.85
2019-05-15T02:20:39.029Z,16.05
2019-05-15T02:23:11.678Z,16.07
2019-05-15T02:25:38.836Z,16.73
2019-05-15T02:28:09.334Z,15.32
2019-05-15T02:30:40.424Z,15.18
2019-05-15T02:33:10.595Z,15.50
2019-05-15T02:35:39.489Z,15.48
2019-05-15T02:38:10.097Z,15.53
2019-05-15T02:40:40.488Z,15.00
2019-05-15T02:43:10.214Z,16.70
2019-05-15T02:45:41.929Z,15.88
2019-05-15T02:48:09.398Z,15.93
2019-05-15T02:50:39.242Z,16.35
2019-05-15T02:53:09.850Z,17.65
2019-05-15T02:55:40.344Z,16.07
2019-05-15T02:58:09.909Z,16.10
2019-05-15T03:00:47.469Z,16.95
2019-05-15T03:03:10.104Z,16.25
2019-05-15T03:05:40.782Z,17.52
2019-05-15T03:08:09.746Z,17.57
2019-05-15T03:10:40.609Z,16.45
2019-05-15T03:13:09.907Z,16.77
2019-05-15T03:15:40.298Z,18.00
2019-05-15T03:18:09.845Z,17.92
2019-05-15T03:20:39.602Z,18.92
2019-05-15T03:23:09.774Z,19.05
2019-05-15T03:25:40.320Z,18.07
2019-05-15T03:28:10.449Z,18.52
2019-05-15T03:31:06.493Z,18.27
2019-05-15T03:33:17.680Z,17.50
2019-05-15T03:35:43.037Z,18.62
2019-05-15T03:38:10.256Z,18.05
2019-05-15T03:40:39.560Z,17.70
2019-05-15T03:43:09.242Z,17.17
2019-05-15T03:45:40.445Z,18.52
2019-05-15T03:48:09.343Z,18.25
2019-05-15T03:50:40.152Z,19.17
2019-05-15T03:53:10.283Z,18.75
2019-05-15T03:55:40.382Z,19.85
2019-05-15T03:58:10.263Z,19.52
2019-05-15T04:00:39.987Z,19.37
2019-05-15T04:03:10.710Z,19.85
2019-05-15T04:05:39.489Z,19.73
2019-05-15T04:08:11.055Z,21.45
2019-05-15T04:10:39.842Z,19.95
2019-05-15T04:13:09.517Z,20.10
2019-05-15T04:15:39.538Z,21.15
2019-05-15T04:18:09.334Z,20.62
2019-05-15T04:20:40.672Z,20.52
2019-05-15T04:23:10.380Z,19.85
2019-05-15T04:25:39.697Z,20.52
2019-05-15T04:28:11.245Z,19.98
2019-05-15T04:30:39.843Z,21.10
2019-05-15T04:33:09.475Z,21.52
2019-05-15T04:35:40.619Z,21.70
2019-05-15T04:38:09.602Z,20.97
2019-05-15T04:40:39.762Z,20.88
2019-05-15T04:43:10.796Z,23.35
2019-05-15T04:45:40.139Z,21.62
2019-05-15T04:48:09.948Z,21.82
2019-05-15T04:50:40.228Z,22.27
2019-05-15T04:53:10.776Z,20.88
2019-05-15T04:55:40.581Z,21.82
2019-05-15T04:58:10.327Z,21.23
2019-05-15T05:00:49.583Z,23.70
2019-05-15T05:03:19.833Z,21.25
2019-05-15T05:05:50.093Z,22.73
2019-05-15T05:08:20.416Z,21.70
2019-05-15T05:10:49.561Z,22.58
2019-05-15T05:13:19.857Z,22.05
2019-05-15T05:15:50.090Z,23.27
2019-05-15T05:18:19.439Z,22.25
2019-05-15T05:20:48.933Z,22.05
2019-05-15T05:23:19.371Z,21.65
2019-05-15T05:25:49.097Z,22.20
2019-05-15T05:28:18.439Z,23.05
2019-05-15T05:30:48.315Z,24.10
2019-05-15T05:33:18.540Z,22.80
2019-05-15T05:35:48.614Z,23.02
2019-05-15T05:38:19.167Z,21.10
2019-05-15T05:40:50.151Z,23.15
2019-05-15T05:43:19.652Z,23.42
2019-05-15T05:45:49.366Z,23.30
2019-05-15T05:48:19.286Z,22.52
2019-05-15T05:50:49.778Z,21.33
2019-05-15T05:53:20.831Z,21.55
2019-05-15T05:55:51.180Z,21.25
2019-05-15T05:58:19.728Z,22.02
2019-05-15T06:00:49.824Z,21.12
2019-05-15T06:03:19.628Z,22.95
2019-05-15T06:05:49.576Z,21.95
2019-05-15T06:08:19.791Z,20.50
2019-05-15T06:10:49.493Z,20.55
2019-05-15T06:13:19.303Z,21.23
2019-05-15T06:15:48.905Z,19.70
2019-05-15T06:18:19.620Z,20.82
2019-05-15T06:20:49.398Z,20.05
2019-05-15T06:23:25.139Z,19.62
2019-05-15T06:25:50.098Z,17.95
2019-05-15T06:28:20.045Z,18.90
2019-05-15T06:30:49.049Z,16.77
2019-05-15T06:33:18.757Z,16.00
2019-05-15T06:35:48.983Z,16.60
2019-05-15T06:38:19.617Z,14.63
2019-05-15T06:40:50.146Z,14.75
2019-05-15T06:43:19.770Z,12.73
2019-05-15T06:45:49.309Z,13.32
2019-05-15T06:48:18.747Z,13.68
2019-05-15T06:50:49.039Z,12.55
2019-05-15T06:53:19.250Z,11.43
2019-05-15T06:55:48.770Z,12.68
2019-05-15T06:58:19.024Z,11.33
2019-05-15T07:00:48.885Z,11.68
2019-05-15T07:03:25.258Z,12.10
2019-05-15T07:05:50.797Z,11.60
2019-05-15T07:08:19.261Z,12.37
2019-05-15T07:10:48.617Z,10.68
2019-05-15T07:13:18.327Z,10.75
2019-05-15T07:15:49.441Z,10.70
2019-05-15T07:18:19.746Z,10.70
2019-05-15T07:20:49.095Z,11.05
2019-05-15T07:23:18.938Z,9.85
2019-05-15T07:25:49.842Z,9.78
2019-05-15T07:28:18.402Z,9.08
2019-05-15T07:30:49.346Z,10.40
2019-05-15T07:33:28.087Z,8.65
2019-05-15T07:35:49.194Z,7.85
2019-05-15T07:38:19.868Z,8.53
2019-05-15T07:40:56.911Z,7.25
2019-05-15T07:43:18.562Z,7.47
2019-05-15T07:45:53.756Z,6.83
2019-05-15T07:48:18.896Z,6.35
2019-05-15T07:50:49.652Z,7.05
2019-05-15T07:53:19.617Z,6.70
2019-05-15T07:55:50.359Z,5.47
2019-05-15T07:58:20.962Z,6.15
2019-05-15T08:00:49.244Z,5.83
2019-05-15T08:03:18.525Z,5.33
2019-05-15T08:05:58.217Z,4.97
2019-05-15T08:08:18.495Z,5.80
2019-05-15T08:10:49.022Z,5.22
2019-05-15T08:13:18.461Z,4.70
2019-05-15T08:15:48.752Z,4.85
2019-05-15T08:18:18.839Z,5.33
2019-05-15T08:20:49.168Z,5.25
2019-05-15T08:23:19.250Z,5.78
2019-05-15T08:25:48.717Z,5.62
2019-05-15T08:28:19.078Z,5.70
2019-05-15T08:30:49.515Z,6.05
2019-05-15T08:33:18.498Z,5.87
2019-05-15T08:35:51.390Z,6.83
2019-05-15T08:38:18.330Z,5.90
2019-05-15T08:40:49.047Z,5.55
2019-05-15T08:43:18.341Z,6.10
2019-05-15T08:45:49.607Z,6.70
2019-05-15T08:48:18.679Z,7.58
2019-05-15T08:50:48.737Z,7.50
2019-05-15T08:53:19.474Z,6.97
2019-05-15T08:55:49.238Z,7.65
2019-05-15T08:58:20.200Z,7.40
2019-05-15T09:00:52.515Z,7.80
2019-05-15T09:03:18.571Z,7.28
2019-05-15T09:05:48.464Z,7.70
2019-05-15T09:08:19.358Z,9.13
2019-05-15T09:10:50.309Z,7.60
2019-05-15T09:13:19.053Z,7.67
2019-05-15T09:15:49.161Z,7.00
2019-05-15T09:18:20.176Z,6.80
2019-05-15T09:20:49.210Z,6.28
2019-05-15T09:23:19.331Z,5.25
2019-05-15T09:25:49.627Z,5.80
2019-05-15T09:28:19.481Z,4.90
2019-05-15T09:30:49.042Z,5.03
2019-05-15T09:33:20.125Z,5.90
2019-05-15T09:35:49.112Z,5.85
2019-05-15T09:38:18.595Z,5.83
2019-05-15T09:40:50.186Z,5.40
2019-05-15T09:43:18.457Z,5.80
2019-05-15T09:45:49.231Z,5.60
2019-05-15T09:48:19.686Z,5.70
2019-05-15T09:50:49.252Z,5.60
2019-05-15T09:53:19.017Z,6.30
2019-05-15T09:55:49.282Z,4.50
2019-05-15T09:58:20.506Z,4.95
2019-05-15T10:00:51.854Z,4.40
2019-05-15T10:03:20.124Z,4.37
2019-05-15T10:05:48.787Z,3.90
2019-05-15T10:08:20.875Z,3.45
2019-05-15T10:10:48.817Z,3.50
2019-05-15T10:13:18.588Z,4.72
2019-05-15T10:15:50.699Z,4.83
2019-05-15T10:18:19.080Z,4.17
2019-05-15T10:20:48.466Z,4.75
2019-05-15T10:23:19.600Z,4.78
2019-05-15T10:25:48.660Z,5.28
2019-05-15T10:28:19.297Z,4.12
2019-05-15T10:30:49.681Z,3.80
2019-05-15T10:33:19.690Z,4.45
2019-05-15T10:35:49.050Z,4.78
2019-05-15T10:38:19.303Z,4.03
2019-05-15T10:40:59.989Z,4.47
2019-05-15T10:43:20.629Z,3.85
2019-05-15T10:45:49.994Z,4.03
2019-05-15T10:48:19.277Z,4.17
2019-05-15T10:50:49.685Z,4.20
2019-05-15T10:53:19.463Z,4.47
2019-05-15T10:55:49.626Z,4.10
2019-05-15T10:58:21.795Z,3.85
2019-05-15T11:00:49.381Z,4.03
2019-05-15T11:03:19.876Z,4.40
2019-05-15T11:05:49.151Z,3.87
2019-05-15T11:08:18.831Z,3.60
2019-05-15T11:10:49.471Z,3.20
2019-05-15T11:13:18.840Z,2.85
2019-05-15T11:15:49.119Z,2.80
2019-05-15T11:18:18.319Z,2.70
2019-05-15T11:20:48.626Z,3.00
2019-05-15T11:23:20.133Z,3.67
2019-05-15T11:25:48.790Z,3.90
2019-05-15T11:28:18.018Z,4.00
2019-05-15T11:30:49.101Z,3.37
2019-05-15T11:33:18.764Z,3.52
2019-05-15T11:35:57.912Z,3.27
2019-05-15T11:38:19.498Z,2.75
2019-05-15T11:40:47.729Z,3.00
2019-05-15T11:43:16.293Z,2.70
2019-05-15T11:45:45.088Z,4.67
2019-05-15T11:48:13.628Z,4.37
2019-05-15T11:50:42.262Z,3.47
2019-05-15T11:53:10.824Z,3.87
2019-05-15T11:55:39.333Z,4.15
2019-05-15T11:58:09.327Z,4.22
2019-05-15T12:00:38.701Z,5.20
2019-05-15T12:03:08.912Z,4.35
2019-05-15T12:05:38.716Z,3.85
2019-05-15T12:08:09.067Z,4.42
2019-05-15T12:10:38.959Z,3.40
2019-05-15T12:13:09.774Z,3.50
2019-05-15T12:15:38.872Z,4.20
2019-05-15T12:18:08.843Z,4.97
2019-05-15T12:20:38.937Z,4.20
2019-05-15T12:23:09.115Z,4.70
2019-05-15T12:25:39.595Z,5.30
2019-05-15T12:28:09.578Z,5.03
2019-05-15T12:30:40.317Z,4.90
2019-05-15T12:33:09.728Z,5.35
2019-05-15T12:35:39.853Z,5.75
2019-05-15T12:38:10.023Z,5.50
2019-05-15T13:00:41.040Z,6.78
2019-05-15T13:03:09.574Z,7.20
2019-05-15T13:05:39.167Z,6.30
2019-05-15T13:08:08.580Z,6.40
2019-05-15T13:10:38.570Z,5.72
2019-05-15T13:13:09.587Z,6.45
2019-05-15T13:15:40.827Z,6.65
2019-05-15T13:18:14.270Z,6.67
2019-05-15T13:20:39.090Z,6.67
2019-05-15T13:23:09.326Z,6.97
2019-05-15T13:25:39.389Z,7.05
2019-05-15T13:28:08.832Z,7.42
2019-05-15T13:30:41.053Z,7.00
2019-05-15T13:33:10.083Z,7.25
2019-05-15T13:35:38.292Z,6.53
2019-05-15T13:38:09.487Z,7.00
2019-05-15T13:40:38.998Z,7.70
2019-05-15T13:43:08.402Z,6.78
2019-05-15T13:45:38.693Z,8.60
2019-05-15T13:48:08.935Z,7.78
2019-05-15T13:50:40.190Z,7.80
2019-05-15T13:53:10.666Z,7.30
2019-05-15T13:55:42.337Z,7.12
2019-05-15T13:58:09.064Z,7.25
2019-05-15T14:00:38.906Z,7.47
2019-05-15T14:03:09.109Z,7.80
2019-05-15T14:05:38.529Z,7.37
2019-05-15T14:08:08.066Z,7.87
2019-05-15T14:10:38.558Z,8.88
2019-05-15T14:13:07.016Z,8.15
2019-05-15T14:15:38.051Z,6.92
2019-05-15T14:18:08.379Z,7.40
2019-05-15T14:20:36.186Z,6.83
2019-05-15T14:23:08.711Z,6.72
2019-05-15T14:25:38.337Z,7.40
2019-05-15T14:28:08.946Z,8.28
2019-05-15T14:30:37.061Z,7.92
2019-05-15T14:33:08.228Z,8.10
2019-05-15T14:35:37.768Z,8.30
2019-05-15T14:38:07.522Z,8.23
2019-05-15T14:40:36.346Z,8.13
2019-05-15T14:43:04.999Z,10.32
2019-05-15T14:45:33.567Z,7.87
2019-05-15T14:48:02.136Z,8.13
2019-05-15T14:50:30.694Z,8.68
2019-05-15T14:52:59.279Z,9.00
2019-05-15T14:55:33.370Z,7.87
2019-05-15T14:58:01.290Z,8.90
2019-05-15T15:00:34.464Z,8.43
2019-05-15T15:03:00.176Z,13.08
2019-05-15T15:05:29.028Z,10.13
2019-05-15T15:07:58.574Z,13.20
2019-05-15T15:10:29.167Z,9.60
2019-05-15T15:12:58.621Z,9.10
2019-05-15T15:15:28.724Z,7.80
2019-05-15T15:17:58.337Z,8.28
2019-05-15T15:20:28.503Z,7.85
2019-05-15T15:22:58.824Z,8.55
2019-05-15T15:25:27.438Z,8.98
2019-05-15T15:27:58.452Z,7.60
2019-05-15T15:30:26.354Z,7.70
2019-05-15T15:32:54.936Z,8.90
2019-05-15T15:35:23.545Z,8.90
2019-05-15T15:37:52.104Z,8.55
2019-05-15T15:40:21.046Z,8.45
2019-05-15T15:42:49.709Z,8.28
2019-05-15T15:45:19.294Z,9.15
2019-05-15T15:47:48.367Z,12.35
2019-05-15T15:50:18.342Z,12.07
2019-05-15T15:52:48.905Z,8.95
2019-05-15T15:55:18.484Z,9.98
2019-05-15T15:57:48.739Z,10.18
2019-05-15T16:00:18.957Z,10.13
2019-05-15T16:02:48.397Z,10.72
2019-05-15T16:05:19.101Z,12.40
2019-05-15T16:07:48.488Z,11.38
2019-05-15T16:10:19.020Z,12.73
2019-05-15T16:12:49.226Z,14.23
2019-05-15T16:15:18.351Z,12.33
2019-05-15T16:17:48.806Z,35.70
2019-05-15T16:20:18.952Z,24.77
2019-05-15T16:22:48.546Z,18.23
2019-05-15T16:25:18.549Z,13.93
2019-05-15T16:27:48.774Z,13.30
2019-05-15T16:30:18.831Z,12.47
2019-05-15T16:32:47.549Z,13.20
2019-05-15T16:35:18.400Z,13.03
2019-05-15T16:37:48.991Z,13.03
2019-05-15T16:40:18.377Z,13.78
2019-05-15T16:42:48.844Z,13.70
2019-05-15T16:45:18.409Z,13.70
2019-05-15T16:47:48.353Z,14.43
2019-05-15T16:50:18.087Z,14.30
2019-05-15T16:52:49.066Z,15.25
2019-05-15T16:55:17.499Z,16.57
2019-05-15T16:57:47.953Z,16.25
2019-05-15T17:00:18.676Z,17.67
2019-05-15T17:02:48.215Z,18.23
2019-05-15T17:05:18.565Z,20.40
2019-05-15T17:07:48.864Z,21.45
2019-05-15T17:10:18.106Z,24.98
2019-05-15T17:12:49.039Z,28.32
2019-05-15T17:15:17.236Z,25.32
2019-05-15T17:17:45.806Z,30.97
2019-05-15T17:20:14.654Z,25.57
2019-05-15T17:22:43.301Z,22.10
2019-05-15T17:25:12.074Z,21.02
2019-05-15T17:27:41.292Z,19.87
2019-05-15T17:30:10.376Z,17.80
2019-05-15T17:32:40.108Z,19.12
2019-05-15T17:35:10.221Z,19.67
2019-05-15T17:37:39.560Z,36.55
2019-05-15T17:40:09.477Z,24.20
2019-05-15T17:42:38.904Z,21.23
2019-05-15T17:45:09.651Z,21.15
2019-05-15T17:47:39.432Z,20.75
2019-05-15T17:50:10.078Z,21.52
2019-05-15T17:52:39.155Z,22.77
2019-05-15T17:55:08.344Z,22.82
2019-05-15T17:57:38.667Z,38.48
2019-05-15T18:00:12.180Z,28.23
2019-05-15T18:02:39.381Z,24.37
2019-05-15T18:05:08.993Z,25.45
2019-05-15T18:07:39.051Z,26.42
2019-05-15T18:10:08.695Z,23.42
2019-05-15T18:12:38.911Z,23.83
2019-05-15T18:15:09.172Z,23.50
2019-05-15T18:17:39.182Z,23.32
2019-05-15T18:20:10.183Z,25.12
2019-05-15T18:22:39.308Z,24.65
2019-05-15T18:25:09.044Z,25.60
2019-05-15T18:27:38.766Z,23.57
2019-05-15T18:30:09.169Z,25.75
2019-05-15T18:32:39.086Z,25.45
2019-05-15T18:35:08.639Z,25.88
2019-05-15T18:37:39.355Z,25.15
2019-05-15T18:40:09.939Z,23.95
2019-05-15T18:42:39.464Z,24.45
2019-05-15T18:45:09.103Z,29.98
2019-05-15T18:47:39.012Z,30.12
2019-05-15T18:50:12.714Z,23.45
2019-05-15T18:52:38.850Z,22.80
2019-05-15T18:55:08.444Z,26.40
2019-05-15T18:57:38.610Z,23.30
2019-05-15T19:00:08.813Z,24.32
2019-05-15T19:02:39.203Z,25.55
2019-05-15T19:05:08.382Z,27.27
2019-05-15T19:07:38.319Z,28.40
2019-05-15T19:10:08.847Z,29.90
2019-05-15T19:12:38.013Z,31.60
2019-05-15T19:15:09.189Z,31.15
2019-05-15T19:17:38.885Z,33.55
2019-05-15T19:20:09.085Z,34.50
2019-05-15T19:22:40.842Z,38.60
2019-05-15T19:25:09.780Z,40.55
2019-05-15T19:27:39.316Z,32.40
2019-05-15T19:30:10.460Z,30.88
2019-05-15T19:32:39.105Z,31.25
2019-05-15T19:35:08.298Z,28.75
2019-05-15T19:37:38.296Z,27.93
2019-05-15T19:40:08.621Z,33.50
2019-05-15T19:42:38.334Z,31.77
2019-05-15T19:45:09.058Z,33.15
2019-05-15T19:47:38.839Z,35.83
2019-05-15T19:50:09.671Z,34.88
2019-05-15T19:52:38.498Z,36.98
2019-05-15T19:55:08.980Z,37.45
2019-05-15T19:57:39.040Z,37.00
2019-05-15T20:00:10.159Z,34.45
2019-05-15T20:02:38.697Z,36.53
2019-05-15T20:05:09.123Z,35.40
2019-05-15T20:07:38.919Z,32.28
2019-05-15T20:10:09.757Z,33.45
2019-05-15T20:12:39.229Z,30.55
2019-05-15T20:15:09.296Z,32.25
2019-05-15T20:17:38.779Z,49.03
2019-05-15T20:20:09.418Z,39.20
2019-05-15T20:22:40.382Z,32.28
2019-05-15T20:25:08.960Z,30.62
2019-05-15T20:27:39.174Z,30.62
2019-05-15T20:30:08.927Z,29.60
2019-05-15T20:32:38.594Z,29.20
2019-05-15T20:35:08.988Z,29.48
2019-05-15T20:37:39.014Z,28.45
2019-05-15T20:40:09.375Z,27.52
2019-05-15T20:42:38.755Z,27.42
2019-05-15T20:45:12.431Z,27.82
2019-05-15T20:47:39.599Z,28.32
2019-05-15T20:50:09.547Z,29.65
2019-05-15T20:52:39.605Z,29.77
2019-05-15T20:55:08.971Z,30.85
2019-05-15T20:57:40.809Z,28.40
2019-05-15T21:00:09.131Z,29.72
2019-05-15T21:02:38.170Z,29.60
2019-05-15T21:05:08.782Z,30.23
2019-05-15T21:07:40.057Z,29.30
2019-05-15T21:10:09.542Z,28.98
2019-05-15T21:12:41.018Z,31.12
2019-05-15T21:15:09.536Z,29.42
2019-05-15T21:17:40.288Z,29.57
2019-05-15T21:20:09.728Z,30.77
2019-05-15T21:22:42.335Z,28.20
2019-05-15T21:25:10.673Z,27.75
2019-05-15T21:27:43.202Z,30.00
2019-05-15T21:30:11.004Z,30.15
2019-05-15T21:32:39.569Z,29.25
2019-05-15T21:35:09.405Z,28.60
2019-05-15T21:37:39.245Z,30.68
2019-05-15T21:40:09.303Z,28.90
2019-05-15T21:42:41.414Z,30.48
2019-05-15T21:45:14.174Z,29.42
2019-05-15T21:47:39.440Z,29.27
2019-05-15T21:50:08.792Z,30.15
2019-05-15T21:52:39.070Z,41.42
2019-05-15T21:55:09.662Z,30.43
2019-05-15T21:57:42.113Z,29.92
2019-05-15T22:00:21.159Z,28.85
2019-05-15T22:02:50.309Z,28.87
2019-05-15T22:05:19.226Z,29.02
2019-05-15T22:07:50.894Z,26.93
2019-05-15T22:10:19.570Z,29.23
2019-05-15T22:12:48.493Z,29.30
2019-05-15T22:15:18.967Z,29.30
2019-05-15T22:17:49.332Z,28.27
2019-05-15T22:20:19.398Z,29.10
2019-05-15T22:22:50.714Z,27.10
2019-05-15T22:25:19.278Z,28.52
2019-05-15T22:27:48.640Z,26.57
2019-05-15T22:30:18.601Z,26.90
2019-05-15T22:32:49.393Z,26.90
2019-05-15T22:35:18.787Z,28.17
2019-05-15T22:37:49.367Z,27.20
2019-05-15T22:40:18.582Z,25.65
2019-05-15T22:42:48.640Z,27.02
2019-05-15T22:45:18.630Z,27.07
2019-05-15T22:47:48.337Z,25.25
2019-05-15T22:50:18.978Z,26.33
2019-05-15T22:52:49.371Z,26.70
2019-05-15T22:55:18.451Z,26.40
2019-05-15T22:57:48.158Z,25.88
2019-05-15T23:00:18.910Z,26.40
2019-05-15T23:02:48.825Z,25.88
2019-05-15T23:05:27.361Z,27.25
2019-05-15T23:07:48.321Z,26.75
2019-05-15T23:10:17.963Z,27.67
2019-05-15T23:12:48.547Z,24.95
2019-05-15T23:15:18.889Z,27.15
2019-05-15T23:17:48.716Z,27.20
2019-05-15T23:20:17.750Z,25.12
2019-05-15T23:22:46.456Z,26.27
2019-05-15T23:25:15.432Z,24.10
2019-05-15T23:27:44.004Z,25.05
2019-05-15T23:30:13.376Z,25.00
2019-05-15T23:32:42.160Z,25.68
2019-05-15T23:35:10.862Z,25.65
2019-05-15T23:37:39.476Z,25.40
2019-05-15T23:40:09.052Z,25.00
2019-05-15T23:42:39.007Z,24.82
2019-05-15T23:45:08.562Z,24.65
2019-05-15T23:47:38.476Z,22.42
2019-05-15T23:50:08.520Z,23.55
2019-05-15T23:52:38.548Z,25.10
2019-05-15T23:55:08.611Z,23.98
2019-05-15T23:57:39.216Z,24.20
